Airfield :
LOGIN :

Register | Disclaimer

   EN    FR    IT 

 










Legend :    VFR   Marginal VFR   IFR   Intensive IFR   Very Intensive IFR
Visi :
Ceiling :
>= 8 km
>= 3000ft
5 to 8 km
1000 to 3000 ft
1500m to 5 km
500 to 1000 ft
800 to 1500m
200 to 500 ft
< 800m
< 200 ft
Symbols :   Thunderstorms  Fog  Heavy snow  Heavy precipitations  Wind > 20 kt
SIGMETs :     Misc.  Thunderstorms  Icing  Turbulence  Mountain Waves  Volcanic Ashes







- Airport Elevation : 20 ft
- IATA code : LSI
- Download approach charts


EGPB - Sumburgh

CURRENT METAR :
  • 220820Z 20020KT 9000 SCT012 09/07 Q1008

EXPIRED METARs :
  • 220750Z 20020KT 9000 SCT014 09/07 Q1009
  • 220720Z 20021KT 9999 SCT010 09/07 Q1010 NOSIG
  • 220650Z 20023KT 9999 SCT010 09/07 Q1010
  • 220620Z 19025KT 9999 FEW010 09/07 Q1011
  • 220550Z AUTO 19025KT 9999 FEW009/// 09/07 Q1011

TAF TAF EGPB
Valid from the 22 at 09:00 until the 22 at 18:00 UTC


220759Z 2209/2218 19025KT 9999 SCT015
TEMPO 2209/2212 20028G38KT
TEMPO 2211/2213 5000 RA BKN014
BECMG 2212/2214 23025KT
TEMPO 2212/2218 24028G40KT 7000 SHRA
No reported NOTAMs for that airfield.
2 SIGMETs reported for the Scottish FIR (EGPX) :
 
Severe mountain waves
EGPX SIGMET 04 VALID 220700/221100 EGRR
EGPX SCOTTISH FIR SEV MTW FCST WI N6000 W00500 - N6000 W00130 - N5700 E00000 - N5700 W00430 - N6000 W00500 FL030/150 STNR NC=
Severe turbulence
EGPX SIGMET 03 VALID 220500/220900 EGRR
EGPX SCOTTISH FIR SEV TURB FCST NW OF LINE N6100 W00400 - N5520 W00655 SFC/FL060 MOV E 15KT NC=



MET'MAP, your aeronautical weather chart ! - Copyright ORBIFLY December 2007 - Disclaimer

ORBIFLY MET'MAP TEAM :

Programming & Development : Alexandra Zaïnal
Concept & Development : Baudouin d'Aumeries
Co-Development & Prog : Marc-Olivier Méhu
Technical & hardware support : Manuel Goepfert

Contact : metmap@orbifly.com




SOURCES & CREDITS :

   NOAA